Chemehuevi Valley, California
Current Conditions -  °F | °C
As of 3:56 PM on Sunday 21 Dec 2014 (Local Time) from KEED Reporting Station
Clear Clear  
Wind Chill: 60°   Ceiling: Unl
Heat Index: 60°   Visibility: 10mi
Dew Point: 40°   Wind: 0mph
Humidity: 47%   Direction: NA
Pressure: 30.05"   Gusts: NA
Location:  34.5025°N, 114.671°W
Report Text: KEED 212356Z AUTO 00000KT 10SM CLR 16/04 A3005 RMK AO2 SLP166 T01560044 10167 20117 56010
Loading
Personal Weather Stations






























Interactive Weather Map New forecast layout! Learn more

10-Day Weather Forecast

Advertisements
Track Severe Weather on mobile